PSA3518 KCLT-KLEX
Flight info
| Callsign | PSA3518 |
|---|---|
| Flight time | 0h 49m |
| Altitude | 30000 |
| Route | JOJJO5 CUBIM |
| Aircraft | CRJ9/M-SDFGIRWY/S |
Departure
| Time | 2026-05-07 23:56 |
|---|---|
| Airport | Charlotte Douglas International Airport (KCLT) |
Arrival
| Time | 2026-05-08 00:45 |
|---|---|
| Airport | Blue Grass Airport (KLEX) |
| Time | Latitude | Longitude | Altitude | Speed | Heading |
|---|---|---|---|---|---|
| 2026-05-07 23:19 | 35.21864 | -80.94170 | 725 ft | 0 kts | 258° |
| 2026-05-07 23:39 | 35.21866 | -80.94160 | 723 ft | 4 kts | 258° |
| 2026-05-07 23:39 | 35.21871 | -80.94127 | 722 ft | 4 kts | 258° |
| 2026-05-07 23:40 | 35.21877 | -80.94095 | 724 ft | 4 kts | 258° |
| 2026-05-07 23:40 | 35.21883 | -80.94071 | 723 ft | 4 kts | 223° |
| 2026-05-07 23:40 | 35.21905 | -80.94066 | 723 ft | 4 kts | 178° |
| 2026-05-07 23:40 | 35.21923 | -80.94065 | 723 ft | 1 kts | 184° |
| 2026-05-07 23:41 | 35.21926 | -80.94065 | 723 ft | 0 kts | 184° |
| 2026-05-07 23:48 | 35.21925 | -80.94065 | 723 ft | 2 kts | 184° |
| 2026-05-07 23:48 | 35.21898 | -80.94068 | 724 ft | 4 kts | 184° |
| 2026-05-07 23:48 | 35.21837 | -80.94069 | 724 ft | 13 kts | 180° |
| 2026-05-07 23:48 | 35.21755 | -80.94070 | 724 ft | 10 kts | 181° |
| 2026-05-07 23:49 | 35.21708 | -80.94092 | 721 ft | 5 kts | 216° |
| 2026-05-07 23:49 | 35.21688 | -80.94114 | 721 ft | 3 kts | 224° |
| 2026-05-07 23:49 | 35.21652 | -80.94159 | 723 ft | 7 kts | 229° |
| 2026-05-07 23:49 | 35.21610 | -80.94217 | 723 ft | 11 kts | 228° |
| 2026-05-07 23:50 | 35.21565 | -80.94279 | 722 ft | 10 kts | 228° |
| 2026-05-07 23:50 | 35.21517 | -80.94346 | 720 ft | 9 kts | 227° |
| 2026-05-07 23:50 | 35.21481 | -80.94391 | 720 ft | 6 kts | 216° |
| 2026-05-07 23:50 | 35.21457 | -80.94419 | 719 ft | 10 kts | 234° |
| 2026-05-07 23:51 | 35.21428 | -80.94464 | 722 ft | 10 kts | 230° |
| 2026-05-07 23:51 | 35.21356 | -80.94570 | 720 ft | 19 kts | 236° |
| 2026-05-07 23:51 | 35.21307 | -80.94718 | 721 ft | 17 kts | 253° |
| 2026-05-07 23:51 | 35.21254 | -80.94824 | 720 ft | 13 kts | 231° |
| 2026-05-07 23:52 | 35.21219 | -80.94871 | 720 ft | 9 kts | 214° |
| 2026-05-07 23:52 | 35.21173 | -80.94889 | 722 ft | 5 kts | 189° |
| 2026-05-07 23:52 | 35.21121 | -80.94887 | 722 ft | 11 kts | 178° |
| 2026-05-07 23:52 | 35.21056 | -80.94884 | 722 ft | 7 kts | 179° |
| 2026-05-07 23:53 | 35.20980 | -80.94909 | 721 ft | 18 kts | 204° |
| 2026-05-07 23:53 | 35.20878 | -80.94947 | 723 ft | 13 kts | 186° |
| 2026-05-07 23:53 | 35.20804 | -80.94950 | 724 ft | 11 kts | 177° |
| 2026-05-07 23:53 | 35.20634 | -80.94934 | 725 ft | 29 kts | 175° |
| 2026-05-07 23:54 | 35.20450 | -80.94921 | 726 ft | 24 kts | 176° |
| 2026-05-07 23:54 | 35.20300 | -80.94908 | 728 ft | 19 kts | 176° |
| 2026-05-07 23:54 | 35.20182 | -80.94897 | 728 ft | 15 kts | 176° |
| 2026-05-07 23:54 | 35.20110 | -80.94890 | 729 ft | 8 kts | 175° |
| 2026-05-07 23:55 | 35.20063 | -80.94890 | 730 ft | 7 kts | 191° |
| 2026-05-07 23:55 | 35.20029 | -80.94918 | 728 ft | 8 kts | 240° |
| 2026-05-07 23:55 | 35.20025 | -80.95060 | 728 ft | 15 kts | 297° |
| 2026-05-07 23:55 | 35.20102 | -80.95090 | 729 ft | 25 kts | 356° |
| 2026-05-07 23:56 | 35.20520 | -80.95125 | 729 ft | 95 kts | 356° |
| 2026-05-07 23:56 | 35.21385 | -80.95199 | 726 ft | 151 kts | 357° |
| 2026-05-07 23:56 | 35.22436 | -80.95297 | 1462 ft | 140 kts | 356° |
| 2026-05-07 23:56 | 35.23299 | -80.95427 | 2501 ft | 121 kts | 354° |
| 2026-05-07 23:57 | 35.24272 | -80.95620 | 2677 ft | 164 kts | 352° |
| 2026-05-07 23:57 | 35.25482 | -80.95903 | 2979 ft | 197 kts | 343° |
| 2026-05-07 23:57 | 35.26601 | -80.97127 | 3496 ft | 235 kts | 299° |
| 2026-05-07 23:57 | 35.27078 | -80.99120 | 4386 ft | 251 kts | 288° |
| 2026-05-07 23:58 | 35.27382 | -81.00250 | 4903 ft | 253 kts | 296° |
| 2026-05-07 23:58 | 35.27908 | -81.01551 | 5712 ft | 252 kts | 298° |
| 2026-05-07 23:58 | 35.28845 | -81.03411 | 6681 ft | 259 kts | 301° |
| 2026-05-07 23:58 | 35.29891 | -81.05211 | 7735 ft | 260 kts | 303° |
| 2026-05-07 23:59 | 35.31011 | -81.06974 | 8657 ft | 265 kts | 304° |
| 2026-05-07 23:59 | 35.32173 | -81.08738 | 9752 ft | 264 kts | 303° |
| 2026-05-07 23:59 | 35.33337 | -81.10502 | 10677 ft | 268 kts | 303° |
| 2026-05-07 23:59 | 35.34508 | -81.12262 | 11680 ft | 266 kts | 303° |
| 2026-05-08 00:00 | 35.35671 | -81.14021 | 12652 ft | 265 kts | 302° |
| 2026-05-08 00:00 | 35.36806 | -81.15751 | 13613 ft | 265 kts | 302° |
| 2026-05-08 00:00 | 35.37941 | -81.17489 | 14471 ft | 265 kts | 302° |
| 2026-05-08 00:00 | 35.39112 | -81.19300 | 14862 ft | 284 kts | 302° |
| 2026-05-08 00:01 | 35.40359 | -81.21246 | 15153 ft | 304 kts | 302° |
| 2026-05-08 00:01 | 35.41635 | -81.23237 | 15513 ft | 320 kts | 302° |
| 2026-05-08 00:01 | 35.43002 | -81.25356 | 16044 ft | 327 kts | 302° |
| 2026-05-08 00:01 | 35.44369 | -81.27526 | 16738 ft | 332 kts | 301° |
| 2026-05-08 00:02 | 35.45698 | -81.29816 | 17251 ft | 338 kts | 300° |
| 2026-05-08 00:02 | 35.47066 | -81.32200 | 17789 ft | 340 kts | 301° |
| 2026-05-08 00:02 | 35.48413 | -81.34538 | 18267 ft | 342 kts | 300° |
| 2026-05-08 00:02 | 35.49785 | -81.36904 | 18697 ft | 343 kts | 300° |
| 2026-05-08 00:03 | 35.51144 | -81.39255 | 19135 ft | 344 kts | 300° |
| 2026-05-08 00:03 | 35.52500 | -81.41627 | 19545 ft | 344 kts | 299° |
| 2026-05-08 00:03 | 35.53850 | -81.43981 | 19956 ft | 345 kts | 299° |
| 2026-05-08 00:03 | 35.55203 | -81.46347 | 20340 ft | 346 kts | 299° |
| 2026-05-08 00:04 | 35.56454 | -81.48795 | 20702 ft | 343 kts | 293° |
| 2026-05-08 00:04 | 35.57520 | -81.51350 | 21072 ft | 342 kts | 291° |
| 2026-05-08 00:04 | 35.58556 | -81.53949 | 21420 ft | 343 kts | 291° |
| 2026-05-08 00:04 | 35.59589 | -81.56524 | 21766 ft | 343 kts | 291° |
| 2026-05-08 00:05 | 35.60648 | -81.59104 | 22102 ft | 344 kts | 291° |
| 2026-05-08 00:05 | 35.61753 | -81.61698 | 22396 ft | 346 kts | 292° |
| 2026-05-08 00:05 | 35.62866 | -81.64285 | 22690 ft | 346 kts | 292° |
| 2026-05-08 00:05 | 35.63993 | -81.66897 | 22903 ft | 349 kts | 292° |
| 2026-05-08 00:06 | 35.65125 | -81.69521 | 23127 ft | 351 kts | 292° |
| 2026-05-08 00:06 | 35.66282 | -81.72150 | 23393 ft | 351 kts | 292° |
| 2026-05-08 00:06 | 35.67437 | -81.74761 | 23642 ft | 352 kts | 292° |
| 2026-05-08 00:06 | 35.68616 | -81.77417 | 23881 ft | 351 kts | 292° |
| 2026-05-08 00:07 | 35.69666 | -81.79821 | 24090 ft | 350 kts | 292° |
| 2026-05-08 00:07 | 35.70777 | -81.82394 | 24294 ft | 350 kts | 292° |
| 2026-05-08 00:07 | 35.71876 | -81.84941 | 24481 ft | 350 kts | 291° |
| 2026-05-08 00:07 | 35.73012 | -81.87568 | 24682 ft | 350 kts | 291° |
| 2026-05-08 00:08 | 35.74155 | -81.90193 | 24873 ft | 350 kts | 292° |
| 2026-05-08 00:08 | 35.75623 | -81.92483 | 25005 ft | 364 kts | 306° |
| 2026-05-08 00:08 | 35.77487 | -81.94604 | 25163 ft | 368 kts | 309° |
| 2026-05-08 00:08 | 35.79453 | -81.96553 | 25334 ft | 373 kts | 312° |
| 2026-05-08 00:09 | 35.81504 | -81.98432 | 25399 ft | 374 kts | 313° |
| 2026-05-08 00:09 | 35.83571 | -82.00269 | 25465 ft | 375 kts | 313° |
| 2026-05-08 00:09 | 35.84910 | -82.01477 | 25563 ft | 373 kts | 312° |
| 2026-05-08 00:09 | 35.86935 | -82.03382 | 25681 ft | 372 kts | 311° |
| 2026-05-08 00:10 | 35.88931 | -82.05281 | 25853 ft | 373 kts | 311° |
| 2026-05-08 00:10 | 35.90956 | -82.07211 | 25995 ft | 372 kts | 311° |
| 2026-05-08 00:10 | 35.92983 | -82.09135 | 26128 ft | 373 kts | 311° |
| 2026-05-08 00:10 | 35.95022 | -82.11075 | 26284 ft | 373 kts | 311° |
| 2026-05-08 00:11 | 35.97052 | -82.13005 | 26384 ft | 373 kts | 310° |
| 2026-05-08 00:11 | 35.99079 | -82.14967 | 26561 ft | 373 kts | 310° |
| 2026-05-08 00:11 | 36.00750 | -82.16575 | 26623 ft | 375 kts | 310° |
| 2026-05-08 00:11 | 36.02420 | -82.18181 | 26718 ft | 375 kts | 310° |
| 2026-05-08 00:12 | 36.04464 | -82.20148 | 26802 ft | 376 kts | 310° |
| 2026-05-08 00:12 | 36.06511 | -82.22101 | 26951 ft | 376 kts | 311° |
| 2026-05-08 00:12 | 36.08583 | -82.24067 | 27047 ft | 374 kts | 310° |
| 2026-05-08 00:12 | 36.10652 | -82.26027 | 27172 ft | 377 kts | 311° |
| 2026-05-08 00:13 | 36.12723 | -82.27950 | 27273 ft | 375 kts | 310° |
| 2026-05-08 00:13 | 36.14786 | -82.29881 | 27233 ft | 373 kts | 309° |
| 2026-05-08 00:13 | 36.16781 | -82.31923 | 27313 ft | 373 kts | 308° |
| 2026-05-08 00:13 | 36.18781 | -82.33944 | 27343 ft | 376 kts | 310° |
| 2026-05-08 00:14 | 36.20840 | -82.35879 | 27463 ft | 376 kts | 310° |
| 2026-05-08 00:14 | 36.22919 | -82.37843 | 27543 ft | 377 kts | 310° |
| 2026-05-08 00:14 | 36.25001 | -82.39781 | 27658 ft | 376 kts | 310° |
| 2026-05-08 00:14 | 36.27088 | -82.41765 | 27712 ft | 378 kts | 310° |
| 2026-05-08 00:15 | 36.29171 | -82.43752 | 27761 ft | 378 kts | 310° |
| 2026-05-08 00:15 | 36.31255 | -82.45753 | 27833 ft | 378 kts | 309° |
| 2026-05-08 00:15 | 36.33297 | -82.47717 | 27905 ft | 378 kts | 309° |
| 2026-05-08 00:15 | 36.35359 | -82.49703 | 27971 ft | 378 kts | 309° |
| 2026-05-08 00:16 | 36.39467 | -82.53667 | 28083 ft | 379 kts | 309° |
| 2026-05-08 00:16 | 36.43572 | -82.57634 | 28163 ft | 379 kts | 309° |
| 2026-05-08 00:17 | 36.47748 | -82.61674 | 28287 ft | 379 kts | 309° |
| 2026-05-08 00:17 | 36.51837 | -82.65640 | 28397 ft | 379 kts | 309° |
| 2026-05-08 00:18 | 36.55977 | -82.69675 | 28517 ft | 380 kts | 309° |
| 2026-05-08 00:18 | 36.60119 | -82.73693 | 28588 ft | 380 kts | 309° |
| 2026-05-08 00:19 | 36.64261 | -82.77720 | 28657 ft | 380 kts | 309° |
| 2026-05-08 00:19 | 36.68422 | -82.81765 | 28747 ft | 380 kts | 309° |
| 2026-05-08 00:20 | 36.72569 | -82.85804 | 28811 ft | 380 kts | 309° |
| 2026-05-08 00:20 | 36.76653 | -82.89806 | 28858 ft | 381 kts | 309° |
| 2026-05-08 00:21 | 36.78714 | -82.91823 | 28970 ft | 380 kts | 309° |
| 2026-05-08 00:21 | 36.80774 | -82.93865 | 28978 ft | 381 kts | 310° |
| 2026-05-08 00:21 | 36.84969 | -82.97875 | 29046 ft | 382 kts | 310° |
| 2026-05-08 00:22 | 36.88367 | -83.01143 | 29116 ft | 381 kts | 310° |
| 2026-05-08 00:22 | 36.92404 | -83.05237 | 29179 ft | 378 kts | 308° |
| 2026-05-08 00:23 | 36.96402 | -83.09430 | 29242 ft | 378 kts | 308° |
| 2026-05-08 00:23 | 37.00386 | -83.13553 | 29251 ft | 377 kts | 308° |
| 2026-05-08 00:24 | 37.03642 | -83.17005 | 29254 ft | 377 kts | 308° |
| 2026-05-08 00:24 | 37.07618 | -83.21239 | 29335 ft | 379 kts | 309° |
| 2026-05-08 00:25 | 37.11622 | -83.25451 | 29349 ft | 380 kts | 309° |
| 2026-05-08 00:25 | 37.15652 | -83.29677 | 29389 ft | 381 kts | 309° |
| 2026-05-08 00:26 | 37.19720 | -83.33945 | 29347 ft | 382 kts | 309° |
| 2026-05-08 00:26 | 37.23793 | -83.38148 | 29376 ft | 383 kts | 309° |
| 2026-05-08 00:27 | 37.27887 | -83.42385 | 29359 ft | 383 kts | 309° |
| 2026-05-08 00:27 | 37.31949 | -83.46667 | 29422 ft | 384 kts | 309° |
| 2026-05-08 00:28 | 37.36010 | -83.50945 | 29425 ft | 385 kts | 309° |
| 2026-05-08 00:28 | 37.39361 | -83.54488 | 29432 ft | 385 kts | 309° |
| 2026-05-08 00:29 | 37.44053 | -83.59458 | 29350 ft | 389 kts | 310° |
| 2026-05-08 00:29 | 37.47474 | -83.63078 | 29370 ft | 389 kts | 310° |
| 2026-05-08 00:30 | 37.51607 | -83.67464 | 29385 ft | 389 kts | 310° |
| 2026-05-08 00:30 | 37.55698 | -83.71825 | 29383 ft | 390 kts | 310° |
| 2026-05-08 00:31 | 37.57772 | -83.74067 | 28639 ft | 392 kts | 310° |
| 2026-05-08 00:31 | 37.59785 | -83.76240 | 27741 ft | 384 kts | 310° |
| 2026-05-08 00:31 | 37.61785 | -83.78433 | 26840 ft | 378 kts | 311° |
| 2026-05-08 00:31 | 37.63798 | -83.80492 | 26066 ft | 371 kts | 311° |
| 2026-05-08 00:32 | 37.65758 | -83.82555 | 25328 ft | 365 kts | 310° |
| 2026-05-08 00:32 | 37.67677 | -83.84593 | 24615 ft | 360 kts | 310° |
| 2026-05-08 00:32 | 37.69549 | -83.86590 | 23917 ft | 355 kts | 310° |
| 2026-05-08 00:32 | 37.71368 | -83.88550 | 23198 ft | 351 kts | 310° |
| 2026-05-08 00:33 | 37.73142 | -83.90481 | 22459 ft | 346 kts | 310° |
| 2026-05-08 00:33 | 37.74951 | -83.92446 | 21770 ft | 341 kts | 311° |
| 2026-05-08 00:33 | 37.76720 | -83.94362 | 21113 ft | 338 kts | 311° |
| 2026-05-08 00:33 | 37.78461 | -83.96251 | 20431 ft | 334 kts | 311° |
| 2026-05-08 00:34 | 37.80172 | -83.98114 | 19825 ft | 331 kts | 311° |
| 2026-05-08 00:34 | 37.81886 | -83.99977 | 19205 ft | 329 kts | 312° |
| 2026-05-08 00:34 | 37.82938 | -84.01117 | 18823 ft | 328 kts | 312° |
| 2026-05-08 00:34 | 37.84637 | -84.02943 | 18223 ft | 326 kts | 313° |
| 2026-05-08 00:35 | 37.86314 | -84.04754 | 17559 ft | 323 kts | 313° |
| 2026-05-08 00:35 | 37.87999 | -84.06566 | 16926 ft | 321 kts | 313° |
| 2026-05-08 00:35 | 37.89683 | -84.08385 | 16286 ft | 318 kts | 313° |
| 2026-05-08 00:35 | 37.91344 | -84.10173 | 15645 ft | 308 kts | 313° |
| 2026-05-08 00:36 | 37.92948 | -84.11902 | 15017 ft | 300 kts | 313° |
| 2026-05-08 00:36 | 37.94518 | -84.13599 | 14406 ft | 293 kts | 313° |
| 2026-05-08 00:36 | 37.96060 | -84.15268 | 13803 ft | 288 kts | 314° |
| 2026-05-08 00:36 | 37.97574 | -84.16902 | 13143 ft | 284 kts | 314° |
| 2026-05-08 00:37 | 37.99064 | -84.18521 | 12499 ft | 280 kts | 315° |
| 2026-05-08 00:37 | 38.00380 | -84.19951 | 11933 ft | 277 kts | 316° |
| 2026-05-08 00:37 | 38.01244 | -84.20886 | 11561 ft | 275 kts | 316° |
| 2026-05-08 00:38 | 38.04117 | -84.24011 | 10371 ft | 270 kts | 318° |
| 2026-05-08 00:38 | 38.05531 | -84.25550 | 9794 ft | 268 kts | 319° |
| 2026-05-08 00:38 | 38.06966 | -84.27098 | 9143 ft | 266 kts | 320° |
| 2026-05-08 00:38 | 38.08369 | -84.28613 | 8511 ft | 264 kts | 319° |
| 2026-05-08 00:39 | 38.09767 | -84.30127 | 7887 ft | 263 kts | 319° |
| 2026-05-08 00:39 | 38.11135 | -84.31615 | 7276 ft | 261 kts | 319° |
| 2026-05-08 00:39 | 38.12529 | -84.33123 | 6680 ft | 260 kts | 319° |
| 2026-05-08 00:39 | 38.13897 | -84.34610 | 6062 ft | 258 kts | 319° |
| 2026-05-08 00:40 | 38.15228 | -84.36059 | 5453 ft | 256 kts | 319° |
| 2026-05-08 00:40 | 38.16584 | -84.37528 | 4833 ft | 255 kts | 319° |
| 2026-05-08 00:40 | 38.17850 | -84.39112 | 4179 ft | 254 kts | 302° |
| 2026-05-08 00:40 | 38.18278 | -84.41232 | 3692 ft | 247 kts | 262° |
| 2026-05-08 00:41 | 38.17802 | -84.43180 | 3811 ft | 220 kts | 248° |
| 2026-05-08 00:41 | 38.17178 | -84.44854 | 3831 ft | 200 kts | 243° |
| 2026-05-08 00:41 | 38.16456 | -84.46288 | 3822 ft | 190 kts | 229° |
| 2026-05-08 00:41 | 38.15541 | -84.47403 | 3792 ft | 183 kts | 223° |
| 2026-05-08 00:42 | 38.14523 | -84.48484 | 3445 ft | 193 kts | 221° |
| 2026-05-08 00:42 | 38.13521 | -84.49525 | 3337 ft | 180 kts | 220° |
| 2026-05-08 00:42 | 38.12557 | -84.50547 | 2963 ft | 182 kts | 223° |
| 2026-05-08 00:42 | 38.11594 | -84.51590 | 2644 ft | 182 kts | 223° |
| 2026-05-08 00:43 | 38.10645 | -84.52640 | 2369 ft | 179 kts | 223° |
| 2026-05-08 00:43 | 38.09754 | -84.53639 | 2163 ft | 166 kts | 224° |
| 2026-05-08 00:43 | 38.08877 | -84.54623 | 1989 ft | 162 kts | 223° |
| 2026-05-08 00:43 | 38.08084 | -84.55510 | 1747 ft | 147 kts | 224° |
| 2026-05-08 00:44 | 38.07333 | -84.56366 | 1505 ft | 144 kts | 223° |
| 2026-05-08 00:44 | 38.06528 | -84.57282 | 1443 ft | 160 kts | 224° |
| 2026-05-08 00:44 | 38.05719 | -84.58212 | 1323 ft | 159 kts | 225° |
| 2026-05-08 00:44 | 38.04895 | -84.59132 | 1174 ft | 160 kts | 223° |
| 2026-05-08 00:45 | 38.04075 | -84.60048 | 965 ft | 150 kts | 225° |
| 2026-05-08 00:45 | 38.03413 | -84.60791 | 939 ft | 71 kts | 222° |
| 2026-05-08 00:45 | 38.03137 | -84.61113 | 934 ft | 41 kts | 221° |
| 2026-05-08 00:45 | 38.03073 | -84.61221 | 937 ft | 6 kts | 287° |
| 2026-05-08 00:46 | 38.03098 | -84.61260 | 938 ft | 4 kts | 335° |
| 2026-05-08 00:46 | 38.03116 | -84.61256 | 935 ft | 8 kts | 24° |
| 2026-05-08 00:46 | 38.03205 | -84.61166 | 937 ft | 21 kts | 42° |
| 2026-05-08 00:46 | 38.03326 | -84.61036 | 937 ft | 24 kts | 41° |
| 2026-05-08 00:47 | 38.03456 | -84.60887 | 939 ft | 27 kts | 42° |
| 2026-05-08 00:47 | 38.03596 | -84.60730 | 945 ft | 28 kts | 41° |
| 2026-05-08 00:47 | 38.03661 | -84.60653 | 946 ft | 0 kts | 74° |
| 2026-05-08 00:47 | 38.03643 | -84.60597 | 946 ft | 10 kts | 131° |
| 2026-05-08 00:48 | 38.03589 | -84.60516 | 946 ft | 15 kts | 127° |
| 2026-05-08 00:48 | 38.03577 | -84.60473 | 947 ft | 4 kts | 76° |
| 2026-05-08 00:48 | 38.03612 | -84.60421 | 949 ft | 9 kts | 39° |
| 2026-05-08 00:48 | 38.03663 | -84.60348 | 950 ft | 13 kts | 56° |
| 2026-05-08 00:49 | 38.03719 | -84.60207 | 952 ft | 19 kts | 63° |
| 2026-05-08 00:49 | 38.03725 | -84.60107 | 958 ft | 2 kts | 101° |
| 2026-05-08 00:49 | 38.03719 | -84.60043 | 958 ft | 12 kts | 96° |
| 2026-05-08 00:49 | 38.03715 | -84.60012 | 961 ft | 3 kts | 109° |
| 2026-05-08 00:50 | 38.03705 | -84.59990 | 960 ft | 1 kts | 122° |
| 2026-05-08 00:50 | 38.03699 | -84.59981 | 961 ft | 0 kts | 143° |
| 2026-05-08 00:50 | 38.03709 | -84.59960 | 962 ft | 1 kts | 199° |
| 2026-05-08 00:50 | 38.03694 | -84.59967 | 961 ft | 3 kts | 199° |
| 2026-05-08 00:51 | 38.03685 | -84.59971 | 963 ft | 1 kts | 199° |
| 2026-05-08 00:51 | 38.03683 | -84.59972 | 963 ft | 0 kts | 199° |